createdAt,value
2023-02-17T00:01:38.585Z,97343.19
2023-02-17T00:04:08.139Z,97361.44
2023-02-17T00:06:37.038Z,97341.59
2023-02-17T00:09:05.349Z,97333.88
2023-02-17T00:11:34.015Z,97359.47
2023-02-17T00:16:55.119Z,97325.50
2023-02-17T00:19:25.401Z,97316.47
2023-02-17T00:21:56.025Z,97298.91
2023-02-17T00:24:25.025Z,97293.44
2023-02-17T00:26:53.230Z,97292.00
2023-02-17T00:29:21.794Z,97289.97
2023-02-17T00:31:50.653Z,97343.44
2023-02-17T00:34:19.069Z,97279.41
2023-02-17T00:36:49.227Z,97325.03
2023-02-17T00:39:18.530Z,97355.94
2023-02-17T00:41:50.518Z,97329.31
2023-02-17T00:44:21.608Z,97275.50
2023-02-17T00:46:52.495Z,97333.59
2023-02-17T00:49:24.816Z,97289.63
2023-02-17T00:51:55.379Z,97318.38
2023-02-17T00:54:23.602Z,97299.59
2023-02-17T00:56:51.855Z,97303.41
2023-02-17T00:59:20.106Z,97240.69
2023-02-17T01:01:48.358Z,97377.47
2023-02-17T01:04:16.684Z,97323.59
2023-02-17T01:06:48.861Z,97301.97
2023-02-17T01:09:18.609Z,97303.19
2023-02-17T01:11:47.237Z,97287.00
2023-02-17T01:14:16.375Z,97290.19
2023-02-17T01:16:49.786Z,97294.97
2023-02-17T01:19:20.499Z,97235.47
2023-02-17T01:21:49.875Z,97292.91
2023-02-17T01:24:19.450Z,97265.09
2023-02-17T01:26:47.838Z,97285.53
2023-02-17T01:29:16.270Z,97319.50
2023-02-17T01:31:45.570Z,97285.81
2023-02-17T01:34:14.357Z,97303.69
2023-02-17T01:36:42.569Z,97287.91
2023-02-17T01:39:14.448Z,97282.88
2023-02-17T01:41:44.687Z,97295.94
2023-02-17T01:44:17.442Z,97298.16
2023-02-17T01:46:47.623Z,97287.59
2023-02-17T01:49:30.787Z,97261.13
2023-02-17T01:52:06.485Z,97254.72
2023-02-17T01:54:40.804Z,97279.47
2023-02-17T01:57:13.088Z,97198.81
2023-02-17T01:59:42.512Z,97232.09
2023-02-17T02:02:11.220Z,97003.78
2023-02-17T02:04:43.149Z,97277.31
2023-02-17T02:07:17.063Z,97242.97
2023-02-17T02:09:51.490Z,97263.25
2023-02-17T02:12:25.032Z,97268.75
2023-02-17T02:14:54.469Z,97242.31
2023-02-17T02:17:34.964Z,97224.47
2023-02-17T02:20:29.711Z,97210.75
2023-02-17T02:23:45.076Z,97206.53
2023-02-17T02:26:54.809Z,97201.91
2023-02-17T02:30:23.304Z,97183.03
2023-02-17T02:33:02.338Z,97210.38
2023-02-17T02:35:40.698Z,97240.25
2023-02-17T02:38:29.403Z,97225.38
2023-02-17T02:41:05.660Z,97243.97
2023-02-17T02:43:34.261Z,97197.38
2023-02-17T02:46:02.560Z,97223.56
2023-02-17T02:48:32.429Z,97184.34
2023-02-17T02:51:24.183Z,97208.91
2023-02-17T02:54:26.278Z,97228.72
2023-02-17T02:57:15.213Z,97266.41
2023-02-17T02:59:56.751Z,97207.97
2023-02-17T03:02:32.342Z,97223.75
2023-02-17T03:05:11.366Z,97241.44
2023-02-17T03:07:46.246Z,97223.53
2023-02-17T03:10:16.238Z,97247.25
2023-02-17T03:12:45.203Z,97217.81
2023-02-17T03:15:18.373Z,97193.31
2023-02-17T03:17:46.544Z,97202.38
2023-02-17T03:20:16.857Z,97225.38
2023-02-17T03:22:48.602Z,97156.59
2023-02-17T03:25:17.676Z,97225.03
2023-02-17T03:27:45.830Z,97238.31
2023-02-17T03:30:15.873Z,97196.25
2023-02-17T03:32:44.231Z,97207.66
2023-02-17T03:35:12.584Z,97232.81
2023-02-17T03:37:42.497Z,97207.72
2023-02-17T03:40:15.689Z,97194.41
2023-02-17T03:42:43.764Z,97211.31
2023-02-17T03:45:11.898Z,97245.91
2023-02-17T03:47:39.983Z,97186.38
2023-02-17T03:50:09.405Z,97206.88
2023-02-17T03:52:38.059Z,97174.34
2023-02-17T03:55:08.109Z,97165.50
2023-02-17T03:57:36.719Z,97220.59
2023-02-17T04:00:06.209Z,97199.50
2023-02-17T04:02:44.004Z,97203.63
2023-02-17T04:05:12.942Z,97241.03
2023-02-17T04:07:41.134Z,97201.41
2023-02-17T04:10:11.846Z,97163.09
2023-02-17T04:12:40.033Z,97232.88
2023-02-17T04:15:09.345Z,97188.75
2023-02-17T04:17:38.677Z,97171.63
2023-02-17T04:20:09.296Z,97209.44
2023-02-17T04:22:37.542Z,97205.88
2023-02-17T04:25:06.239Z,97208.50
2023-02-17T04:27:36.201Z,97181.84
2023-02-17T04:30:04.871Z,97142.91
2023-02-17T04:32:33.065Z,97234.59
2023-02-17T04:35:01.319Z,97200.50
2023-02-17T04:37:29.497Z,97215.69
2023-02-17T04:39:57.695Z,97191.81
2023-02-17T04:42:26.188Z,97245.63
2023-02-17T04:44:55.718Z,97165.47
2023-02-17T04:47:23.972Z,97165.59
2023-02-17T04:49:52.167Z,97202.00
2023-02-17T04:52:20.370Z,97196.22
2023-02-17T04:54:48.570Z,97223.16
2023-02-17T04:57:17.129Z,97174.88
2023-02-17T04:59:45.711Z,97191.97
2023-02-17T05:02:15.275Z,97232.44
2023-02-17T05:04:46.009Z,97195.97
2023-02-17T05:07:14.662Z,97192.25
2023-02-17T05:09:42.950Z,97203.28
2023-02-17T05:12:11.128Z,97184.53
2023-02-17T05:14:39.395Z,97175.00
2023-02-17T05:17:07.599Z,97216.94
2023-02-17T05:19:37.295Z,97221.50
2023-02-17T05:22:06.451Z,97180.66
2023-02-17T05:24:34.653Z,97182.56
2023-02-17T05:27:02.846Z,97137.56
2023-02-17T05:29:31.033Z,97204.25
2023-02-17T05:31:59.257Z,97235.19
2023-02-17T05:34:27.520Z,97179.53
2023-02-17T05:36:57.093Z,97236.56
2023-02-17T05:39:25.712Z,97194.16
2023-02-17T05:41:56.410Z,97176.78
2023-02-17T05:44:24.812Z,97140.34
2023-02-17T05:46:53.484Z,97147.22
2023-02-17T05:49:21.686Z,97198.59
2023-02-17T05:51:49.995Z,97199.44
2023-02-17T05:54:19.516Z,97219.81
2023-02-17T05:56:47.887Z,97221.41
2023-02-17T05:59:16.053Z,97192.09
2023-02-17T06:01:44.263Z,97234.94
2023-02-17T06:04:12.560Z,97211.75
2023-02-17T06:06:40.748Z,97244.34
2023-02-17T06:09:08.953Z,97287.94
2023-02-17T06:11:38.784Z,97222.25
2023-02-17T06:14:07.384Z,97211.03
2023-02-17T06:16:35.560Z,97229.56
2023-02-17T06:19:05.183Z,97193.53
2023-02-17T06:21:35.005Z,97207.63
2023-02-17T06:24:27.001Z,97169.09
2023-02-17T06:26:57.466Z,97177.81
2023-02-17T06:29:25.681Z,97213.16
2023-02-17T06:31:53.942Z,97270.22
2023-02-17T06:34:22.189Z,97181.38
2023-02-17T06:36:50.492Z,97209.00
2023-02-17T06:39:19.404Z,97229.69
2023-02-17T06:41:47.594Z,97170.47
2023-02-17T06:44:17.173Z,97200.41
2023-02-17T06:46:46.871Z,97211.19
2023-02-17T06:49:15.595Z,97244.88
2023-02-17T06:51:43.836Z,97199.19
2023-02-17T06:54:12.087Z,97209.88
2023-02-17T06:56:40.461Z,97206.88
2023-02-17T06:59:08.792Z,97210.09
2023-02-17T07:01:38.526Z,97246.81
2023-02-17T07:04:07.702Z,97229.13
2023-02-17T07:06:40.070Z,97289.22
2023-02-17T07:09:08.526Z,97207.34
2023-02-17T07:11:36.669Z,97234.56
2023-02-17T07:14:04.772Z,97177.81
2023-02-17T07:16:32.922Z,97274.47
2023-02-17T07:19:02.393Z,97226.56
2023-02-17T07:21:30.473Z,97224.31
2023-02-17T07:23:58.551Z,97239.66
2023-02-17T07:26:26.866Z,97214.91
2023-02-17T07:28:54.998Z,97245.69
2023-02-17T07:31:23.211Z,97245.84
2023-02-17T07:33:51.430Z,97260.22
2023-02-17T07:36:21.154Z,97271.25
2023-02-17T07:38:49.995Z,97245.03
2023-02-17T07:41:20.291Z,97274.00
2023-02-17T07:43:49.351Z,97215.72
2023-02-17T07:46:18.609Z,97301.06
2023-02-17T07:48:47.469Z,97308.69
2023-02-17T07:51:20.627Z,97181.94
2023-02-17T07:53:53.290Z,97223.50
2023-02-17T07:56:23.015Z,97178.72
2023-02-17T07:58:51.733Z,97234.94
2023-02-17T08:01:23.045Z,97237.56
2023-02-17T08:03:51.962Z,97240.06
2023-02-17T08:06:22.757Z,97227.38
2023-02-17T08:09:11.151Z,97274.59
2023-02-17T08:11:57.537Z,97261.22
2023-02-17T08:14:28.426Z,97259.28
2023-02-17T08:16:56.981Z,97237.59
2023-02-17T08:19:27.151Z,97200.31
2023-02-17T08:21:59.535Z,97300.47
2023-02-17T08:24:29.860Z,97251.00
2023-02-17T08:26:58.075Z,97295.53
2023-02-17T08:29:26.243Z,97313.75
2023-02-17T08:31:55.005Z,97257.91
2023-02-17T08:34:23.317Z,97267.63
2023-02-17T08:36:51.487Z,97256.41
2023-02-17T08:39:19.755Z,97270.09
2023-02-17T08:41:49.780Z,97280.44
2023-02-17T08:44:20.911Z,97279.75
2023-02-17T08:46:51.164Z,97266.81
2023-02-17T08:49:22.551Z,97243.56
2023-02-17T08:51:51.546Z,97271.91
2023-02-17T08:54:19.945Z,97251.84
2023-02-17T08:56:49.528Z,97300.22
2023-02-17T08:59:18.186Z,97245.22
2023-02-17T09:01:46.456Z,97326.44
2023-02-17T09:04:19.356Z,97280.03
2023-02-17T09:06:56.040Z,97234.88
2023-02-17T09:09:27.810Z,97281.41
2023-02-17T09:11:58.983Z,97286.94
2023-02-17T09:14:27.678Z,97278.97
2023-02-17T09:16:56.760Z,97244.13
2023-02-17T09:19:25.809Z,97271.63
2023-02-17T09:21:54.699Z,97282.56
2023-02-17T09:24:23.341Z,97295.84
2023-02-17T09:26:51.592Z,97287.56
2023-02-17T09:29:21.094Z,97311.59
2023-02-17T09:31:49.481Z,97272.31
2023-02-17T09:34:17.726Z,97285.34
2023-02-17T09:36:46.230Z,97278.38
2023-02-17T09:39:14.907Z,97301.91
2023-02-17T09:41:47.296Z,97269.81
2023-02-17T09:44:23.790Z,97269.56
2023-02-17T09:47:05.517Z,97232.53
2023-02-17T09:49:41.497Z,97318.38
2023-02-17T09:52:15.766Z,97322.38
2023-02-17T09:54:57.778Z,97310.78
2023-02-17T09:57:31.518Z,97284.66
2023-02-17T10:00:08.896Z,97243.91
2023-02-17T10:02:48.210Z,97252.47
2023-02-17T10:05:22.911Z,97186.91
2023-02-17T10:07:58.149Z,97245.50
2023-02-17T10:10:32.801Z,97264.06
2023-02-17T10:13:03.837Z,97376.34
2023-02-17T10:15:40.866Z,97254.94
2023-02-17T10:18:20.251Z,97287.28
2023-02-17T10:20:53.815Z,97178.59
2023-02-17T10:23:25.977Z,97269.69
2023-02-17T10:26:12.013Z,97265.41
2023-02-17T10:28:52.371Z,97323.78
2023-02-17T10:31:39.862Z,97284.09
2023-02-17T10:34:21.159Z,97281.19
2023-02-17T10:36:58.798Z,97291.28
2023-02-17T10:39:45.200Z,97245.09
2023-02-17T10:42:22.555Z,97250.34
2023-02-17T10:44:52.548Z,97331.41
2023-02-17T10:47:23.502Z,97070.09
2023-02-17T10:49:54.777Z,97287.22
2023-02-17T10:52:37.712Z,97265.81
2023-02-17T10:55:22.788Z,97264.41
2023-02-17T10:58:00.521Z,97282.25
2023-02-17T11:00:28.743Z,97282.38
2023-02-17T11:02:58.665Z,97287.78
2023-02-17T11:05:31.038Z,97262.56
2023-02-17T11:08:06.077Z,97274.19
2023-02-17T11:10:37.014Z,97191.19
2023-02-17T11:13:29.765Z,97287.47
2023-02-17T11:15:58.691Z,97222.53
2023-02-17T11:18:33.088Z,97252.56
2023-02-17T11:21:05.083Z,97249.56
2023-02-17T11:23:33.917Z,97227.16
2023-02-17T11:26:11.190Z,97268.25
2023-02-17T11:28:39.787Z,97245.69
2023-02-17T11:31:09.361Z,97231.50
2023-02-17T11:33:41.174Z,97273.13
2023-02-17T11:36:24.298Z,97268.19
2023-02-17T11:38:52.886Z,97246.75
2023-02-17T11:41:21.443Z,97288.38
2023-02-17T11:43:55.876Z,97246.63
2023-02-17T11:46:32.658Z,97236.38
2023-02-17T11:49:34.825Z,97238.44
2023-02-17T11:52:22.498Z,97252.13
2023-02-17T11:55:07.809Z,97236.25
2023-02-17T11:57:42.806Z,97244.16
2023-02-17T12:00:18.853Z,97281.03
2023-02-17T12:03:22.275Z,97298.34
2023-02-17T12:06:03.829Z,97288.41
2023-02-17T12:08:47.653Z,97237.09
2023-02-17T12:11:24.557Z,97282.88
2023-02-17T12:14:21.006Z,97268.22
2023-02-17T12:16:57.024Z,97257.84
2023-02-17T12:19:41.693Z,97258.53
2023-02-17T12:22:20.751Z,97263.47
2023-02-17T12:25:15.557Z,97243.59
2023-02-17T12:28:00.082Z,97257.97
2023-02-17T12:30:40.468Z,97234.31
2023-02-17T12:33:42.029Z,97270.09
2023-02-17T12:36:14.438Z,97257.25
2023-02-17T12:38:47.762Z,97261.25
2023-02-17T12:41:21.139Z,97256.84
2023-02-17T12:43:54.253Z,97210.66
2023-02-17T12:46:28.579Z,97268.19
2023-02-17T12:49:01.007Z,97206.25
2023-02-17T12:51:33.406Z,97215.75
2023-02-17T12:54:13.900Z,97209.66
2023-02-17T12:56:55.356Z,97238.81
2023-02-17T12:59:33.882Z,97228.88
2023-02-17T13:02:28.048Z,97241.84
2023-02-17T13:05:02.255Z,97228.81
2023-02-17T13:07:44.650Z,97240.88
2023-02-17T13:10:33.844Z,97182.22
2023-02-17T13:13:10.638Z,97218.31
2023-02-17T13:15:42.956Z,97206.97
2023-02-17T13:18:26.593Z,97227.66
2023-02-17T13:21:01.011Z,97239.00
2023-02-17T13:23:40.032Z,97230.41
2023-02-17T13:26:26.351Z,97229.41
2023-02-17T13:29:09.297Z,97220.66
2023-02-17T13:31:49.337Z,97251.53
2023-02-17T13:34:31.386Z,97199.38
2023-02-17T13:37:02.328Z,97201.56
2023-02-17T13:39:38.289Z,97227.59
2023-02-17T13:42:36.976Z,97174.06
2023-02-17T13:45:22.462Z,97065.28
2023-02-17T13:47:54.148Z,97224.75
2023-02-17T13:50:35.106Z,97227.16
2023-02-17T13:53:07.670Z,97172.97
2023-02-17T13:55:36.451Z,97203.91
2023-02-17T13:58:05.969Z,97127.13
2023-02-17T14:00:34.350Z,97204.38
2023-02-17T14:03:15.276Z,97190.91
2023-02-17T14:05:46.404Z,97197.69
2023-02-17T14:08:20.023Z,97160.97
2023-02-17T14:10:48.718Z,97161.94
2023-02-17T14:13:18.423Z,97153.34
2023-02-17T14:15:56.166Z,97129.84
2023-02-17T14:18:35.499Z,97166.13
2023-02-17T14:21:10.271Z,97168.50
2023-02-17T14:23:45.525Z,97179.69
2023-02-17T14:26:25.452Z,97135.63
2023-02-17T14:28:56.641Z,97201.13
2023-02-17T14:31:25.487Z,97201.50
2023-02-17T14:33:55.783Z,97188.50
2023-02-17T14:36:36.091Z,97120.06
2023-02-17T14:39:06.735Z,97188.94
2023-02-17T14:41:35.364Z,97173.25
2023-02-17T14:44:06.073Z,97181.06
2023-02-17T14:46:34.930Z,97133.44
2023-02-17T14:49:03.497Z,97179.75
2023-02-17T14:51:35.717Z,97155.69
2023-02-17T14:54:05.603Z,97073.09
2023-02-17T14:56:38.834Z,97169.56
2023-02-17T14:59:10.030Z,97166.75
2023-02-17T15:01:38.284Z,97080.50
2023-02-17T15:04:07.168Z,97145.84
2023-02-17T15:06:40.742Z,97136.44
2023-02-17T15:09:13.395Z,97130.75
2023-02-17T15:11:45.531Z,97101.47
2023-02-17T15:14:17.807Z,97137.59
2023-02-17T15:16:46.713Z,97226.13
2023-02-17T15:19:17.964Z,97141.19
2023-02-17T15:21:49.674Z,97079.44
2023-02-17T15:24:20.830Z,97105.66
2023-02-17T15:26:49.048Z,97101.53
2023-02-17T15:29:22.199Z,97015.16
2023-02-17T15:31:52.859Z,97094.81
2023-02-17T15:34:24.253Z,97117.09
2023-02-17T15:36:52.636Z,97114.59
2023-02-17T15:39:22.279Z,97073.19
2023-02-17T15:41:51.456Z,97169.38
2023-02-17T15:44:23.888Z,97135.38
2023-02-17T15:46:55.942Z,97142.59
2023-02-17T15:49:24.454Z,97132.00
2023-02-17T15:51:53.132Z,97135.75
2023-02-17T15:54:22.932Z,97148.84
2023-02-17T15:56:53.759Z,97139.72
2023-02-17T15:59:26.825Z,97112.44
2023-02-17T16:01:56.749Z,97135.84
2023-02-17T16:04:24.910Z,97137.19
2023-02-17T16:06:53.099Z,97146.91
2023-02-17T16:09:21.667Z,97110.28
2023-02-17T16:11:52.281Z,97125.31
2023-02-17T16:14:31.848Z,97104.75
2023-02-17T16:17:00.224Z,97161.78
2023-02-17T16:19:29.031Z,97108.34
2023-02-17T16:21:57.356Z,97114.25
2023-02-17T16:24:25.565Z,97116.88
2023-02-17T16:26:53.853Z,97142.34
2023-02-17T16:29:23.927Z,97106.06
2023-02-17T16:31:52.449Z,97127.25
2023-02-17T16:34:22.888Z,97140.91
2023-02-17T16:36:53.506Z,97159.22
2023-02-17T16:39:22.799Z,97146.91
2023-02-17T16:41:51.672Z,97134.69
2023-02-17T16:44:24.564Z,97160.13
2023-02-17T16:46:55.604Z,97148.00
2023-02-17T16:49:32.567Z,97150.13
2023-02-17T16:52:01.111Z,97140.03
2023-02-17T16:54:30.120Z,97112.28
2023-02-17T16:56:59.422Z,97163.38
2023-02-17T16:59:29.312Z,97131.09
2023-02-17T17:01:59.339Z,97157.50
2023-02-17T17:04:27.560Z,97143.34
2023-02-17T17:07:22.754Z,97159.09
2023-02-17T17:10:14.321Z,97173.75
2023-02-17T17:12:39.074Z,97108.97
2023-02-17T17:15:10.134Z,97141.94
2023-02-17T17:17:43.780Z,97141.63
2023-02-17T17:20:17.204Z,97120.88
2023-02-17T17:22:46.711Z,97148.19
2023-02-17T17:25:15.378Z,97130.88
2023-02-17T17:27:45.944Z,97145.22
2023-02-17T17:30:23.252Z,97099.88
2023-02-17T17:32:51.801Z,97124.47
2023-02-17T17:35:20.942Z,97128.44
2023-02-17T17:37:49.477Z,97143.47
2023-02-17T17:40:21.056Z,97151.50
2023-02-17T17:42:49.466Z,97132.31
2023-02-17T17:45:19.912Z,97108.88
2023-02-17T17:47:48.181Z,97163.59
2023-02-17T17:50:19.553Z,97173.56
2023-02-17T17:52:48.836Z,97133.44
2023-02-17T17:55:17.590Z,97081.59
2023-02-17T17:57:45.837Z,97142.78
2023-02-17T18:00:19.779Z,97206.16
2023-02-17T18:02:48.008Z,97183.66
2023-02-17T18:05:16.597Z,97171.69
2023-02-17T18:07:48.150Z,97214.03
2023-02-17T18:10:16.653Z,97183.56
2023-02-17T18:12:46.705Z,97143.75
2023-02-17T18:15:15.837Z,97211.00
2023-02-17T18:17:46.465Z,97204.72
2023-02-17T18:20:15.084Z,97225.09
2023-02-17T18:22:43.201Z,97294.78
2023-02-17T18:25:12.137Z,97159.22
2023-02-17T18:27:42.696Z,97215.63
2023-02-17T18:30:12.623Z,97263.22
2023-02-17T18:32:41.251Z,97290.34
2023-02-17T18:35:11.244Z,97235.25
2023-02-17T18:37:40.987Z,97234.66
2023-02-17T18:40:12.529Z,97266.66
2023-02-17T18:42:42.401Z,97200.84
2023-02-17T18:45:11.828Z,97248.31
2023-02-17T18:47:40.005Z,97288.06
2023-02-17T18:50:11.996Z,97269.00
2023-02-17T18:52:40.622Z,97203.75
2023-02-17T18:55:09.638Z,97277.19
2023-02-17T18:57:38.178Z,97264.75
2023-02-17T19:00:10.722Z,97302.09
2023-02-17T19:02:39.976Z,97271.09
2023-02-17T19:05:15.111Z,97287.75
2023-02-17T19:07:43.546Z,97272.13
2023-02-17T19:10:12.866Z,97298.53
2023-02-17T19:12:41.142Z,97312.66
2023-02-17T19:15:09.697Z,97299.63
2023-02-17T19:17:37.904Z,97307.94
2023-02-17T19:20:07.491Z,97298.66
2023-02-17T19:22:38.202Z,97263.53
2023-02-17T19:25:08.229Z,97274.31
2023-02-17T19:27:39.747Z,97090.06
2023-02-17T19:30:09.628Z,97197.97
2023-02-17T19:32:37.971Z,97297.66
2023-02-17T19:35:06.919Z,97251.47
2023-02-17T19:37:37.375Z,97296.44
2023-02-17T19:40:07.144Z,97276.25
2023-02-17T19:42:35.649Z,97298.53
2023-02-17T19:45:03.932Z,97298.53
2023-02-17T19:47:32.117Z,97269.44
2023-02-17T19:50:00.332Z,97255.13
2023-02-17T19:52:28.993Z,97262.25
2023-02-17T19:54:59.677Z,97262.97
2023-02-17T19:57:27.845Z,97254.03
2023-02-17T19:59:56.574Z,97283.53
2023-02-17T20:02:24.810Z,97295.16
2023-02-17T20:04:53.012Z,97301.81
2023-02-17T20:07:21.251Z,97287.41
2023-02-17T20:09:49.424Z,97269.56
2023-02-17T20:12:19.060Z,97308.16
2023-02-17T20:14:47.265Z,97257.94
2023-02-17T20:17:16.810Z,97292.41
2023-02-17T20:19:45.062Z,97266.16
2023-02-17T20:22:13.348Z,97298.31
2023-02-17T20:24:42.605Z,97327.81
2023-02-17T20:27:11.505Z,97319.22
2023-02-17T20:29:41.158Z,97324.22
2023-02-17T20:32:10.071Z,97294.06
2023-02-17T20:34:40.484Z,97320.22
2023-02-17T20:37:09.625Z,97342.19
2023-02-17T20:39:40.157Z,97329.16
2023-02-17T20:42:08.519Z,97288.88
2023-02-17T20:44:37.039Z,97262.03
2023-02-17T20:47:06.653Z,97318.94
2023-02-17T20:49:36.253Z,97239.66
2023-02-17T20:52:06.545Z,97304.06
2023-02-17T20:54:35.284Z,97304.06
2023-02-17T20:57:04.863Z,97314.41
2023-02-17T20:59:33.014Z,97282.00
2023-02-17T21:02:01.301Z,97302.97
2023-02-17T21:04:32.895Z,97304.06
2023-02-17T21:07:02.861Z,97306.25
2023-02-17T21:09:31.170Z,97329.94
2023-02-17T21:11:59.435Z,97324.28
2023-02-17T21:14:27.650Z,97296.63
2023-02-17T21:16:55.820Z,97297.44
2023-02-17T21:19:24.234Z,97322.63
2023-02-17T21:21:53.747Z,97335.09
2023-02-17T21:24:22.223Z,97312.78
2023-02-17T21:26:50.415Z,97283.31
2023-02-17T21:29:18.646Z,97336.72
2023-02-17T21:31:46.891Z,97298.00
2023-02-17T21:34:15.177Z,97322.22
2023-02-17T21:36:43.358Z,97345.63
2023-02-17T21:39:13.121Z,97329.41
2023-02-17T21:41:43.026Z,97315.88
2023-02-17T21:44:31.280Z,97238.69
2023-02-17T21:46:59.742Z,97302.16
2023-02-17T21:49:28.533Z,97330.38
2023-02-17T21:51:56.743Z,97305.34
2023-02-17T21:54:26.274Z,97320.81
2023-02-17T21:56:54.474Z,97323.56
2023-02-17T21:59:22.656Z,97335.91
2023-02-17T22:01:51.930Z,97298.81
2023-02-17T22:04:20.278Z,97331.75
2023-02-17T22:06:48.563Z,97314.88
2023-02-17T22:09:18.459Z,97334.41
2023-02-17T22:11:49.562Z,97319.84
2023-02-17T22:14:21.266Z,97323.28
2023-02-17T22:16:50.441Z,97355.97
2023-02-17T22:19:21.701Z,97355.66
2023-02-17T22:21:54.389Z,97318.69
2023-02-17T22:24:22.777Z,97328.28
2023-02-17T22:26:52.320Z,97360.97
2023-02-17T22:29:20.517Z,97334.78
2023-02-17T22:31:50.307Z,97371.88
2023-02-17T22:34:18.692Z,97333.00
2023-02-17T22:36:47.304Z,97317.47
2023-02-17T22:39:15.623Z,97337.16
2023-02-17T22:41:43.878Z,97344.22
2023-02-17T22:44:13.564Z,97295.78
2023-02-17T22:46:41.872Z,97330.63
2023-02-17T22:49:10.137Z,97323.31
2023-02-17T22:51:40.668Z,97332.16
2023-02-17T22:54:09.965Z,97340.19
2023-02-17T22:56:38.506Z,97307.13
2023-02-17T22:59:06.805Z,97329.53
2023-02-17T23:01:37.706Z,97333.69
2023-02-17T23:04:08.087Z,97304.31
2023-02-17T23:06:38.800Z,97340.63
2023-02-17T23:09:10.146Z,97355.00
2023-02-17T23:11:54.238Z,97316.13
2023-02-17T23:14:26.580Z,97313.63
2023-02-17T23:16:59.282Z,97348.34
2023-02-17T23:19:28.654Z,97296.16
2023-02-17T23:21:59.785Z,97324.59
2023-02-17T23:24:29.139Z,97330.50
2023-02-17T23:27:00.268Z,97292.72
2023-02-17T23:29:30.666Z,97308.94
2023-02-17T23:32:00.609Z,97338.97
2023-02-17T23:34:29.724Z,97293.84
2023-02-17T23:36:58.096Z,97317.38
2023-02-17T23:39:26.415Z,97326.09
2023-02-17T23:41:54.704Z,97282.13
2023-02-17T23:44:22.872Z,97320.16
2023-02-17T23:46:51.132Z,97262.88
2023-02-17T23:49:20.656Z,97320.31
2023-02-17T23:51:48.852Z,97334.00
2023-02-17T23:54:17.197Z,97351.97
2023-02-17T23:56:45.410Z,97332.09
2023-02-17T23:59:14.219Z,97288.50
